CYXPCYVM

Guest
Details From CYXP - Pangnirtung
To CYVM - QIKIQTARJUAQ
Flight Number -
Tags generated
Created
Modified
Stats Distance 95 nm / 176 km
Max Altitude 200 ft / 61 m
Waypoints 3
Social Downloads 0
Likes 0
Share VATSIM

Download

Looking for another format? Having issues loading an existing format? Contact us
Advertisement - Login to hide

Notes

Basic altitude profile: - Ascent Rate: 2500ft/min - Ascent Speed: 250kts - Cruise Altitude: 35000ft - Cruise Speed: 420kts - Descent Rate: 1500ft/min - Descent Speed: 250kts Options: - Use NATs: yes - Use PACOTS: yes - Use low airways: yes - Use high airways: yes

Route

CYXP YJI CYVM

ID Type Via Altitude Latitude Longitude Leg Dist Tot Dist Heading (true) Name
O CYXP APT - 0 ft / 0 m 66.14494˚ -65.71313˚ - 0 nm - Pangnirtung
YJI NDB - 200 ft / 61 m 67.56194˚ -64.01750˚ 94 nm 94 nm 24° / 26° BROUGHTON NDB
O CYVM APT - 0 ft / 0 m 67.54624˚ -64.03071˚ 0 nm 95 nm 198° / 198° QIKIQTARJUAQ

Altitude Profile

Advertisement - Login to hide

CYXP

Details ICAO CYXP (YXP)
Name Pangnirtung
Region Canada
Timezone Unknown (UTC+0.0)
Stats Elevation 73 ft / 22 m (AMSL)
Location 66.144940° -65.713130°
Runways 1
Magnetic Variation 30.538° W

METAR

Not found

TAF

TAF CYXP 111838Z 1119/1123 VRB03KT P6SM FEW020 SCT030 TEMPO 1119/1123 5SM -SN BKN020 RMK NXT FCST WILL BE ISSUED AT 121345Z

Decode

Departure Runways

ID Width Length Bearing (true) Bearing (mag) Surface Threshold Offset Overrun Length
06T 98 ft / 30 m 2,919 ft / 890 m 60.95° 91.49° Gravel 0 ft / 0 m 0 ft / 0 m
24T 98 ft / 30 m 2,919 ft / 890 m 240.97° 271.51° Gravel 0 ft / 0 m 0 ft / 0 m

CYVM

Details ICAO CYVM (YVM)
Name QIKIQTARJUAQ
Region Canada
Timezone Unknown (UTC+0.0)
Stats Elevation 21 ft / 6 m (AMSL)
Location 67.546236° -64.030706°
Runways 1
Magnetic Variation 32.152° W

METAR

CYVM 120100Z AUTO 03006KT 9SM FEW039 M15/M17 A2925 RMK SLP908

Decode

TAF

TAF CYVM 120038Z 1201/1213 36010KT P6SM FEW015 SCT040 TEMPO 1201/1213 4SM -SN FEW015 BKN040 BECMG 1207/1209 22008KT RMK FCST BASED ON AUTO OBS. NXT FCST BY 120700Z

Decode

Destination Runways

ID Width Length Bearing (true) Bearing (mag) Surface Threshold Offset Overrun Length
03T 100 ft / 30 m 3,741 ft / 1,140 m 33.20° 65.35° Gravel 0 ft / 0 m 0 ft / 0 m
21T 100 ft / 30 m 3,741 ft / 1,140 m 213.21° 245.36° Gravel 0 ft / 0 m 0 ft / 0 m